createdAt,value
2022-12-08T00:01:29.027Z,96597.25
2022-12-08T00:03:56.385Z,96562.41
2022-12-08T00:06:44.800Z,96566.13
2022-12-08T00:09:24.938Z,96529.00
2022-12-08T00:12:03.450Z,96526.31
2022-12-08T00:14:33.545Z,96498.34
2022-12-08T00:17:00.820Z,96522.63
2022-12-08T00:19:27.450Z,96531.16
2022-12-08T00:21:54.206Z,96537.56
2022-12-08T00:24:20.942Z,96566.28
2022-12-08T00:26:47.750Z,96553.28
2022-12-08T00:29:17.348Z,96538.84
2022-12-08T00:31:44.205Z,96566.53
2022-12-08T00:34:11.830Z,96574.81
2022-12-08T00:36:39.089Z,96578.63
2022-12-08T00:39:05.628Z,96576.56
2022-12-08T00:41:51.066Z,96570.91
2022-12-08T00:44:20.875Z,96538.19
2022-12-08T00:46:48.157Z,96534.66
2022-12-08T00:49:14.974Z,96519.00
2022-12-08T00:51:41.506Z,96485.28
2022-12-08T00:54:08.505Z,96463.00
2022-12-08T00:56:35.119Z,96437.91
2022-12-08T00:59:01.648Z,96409.44
2022-12-08T01:01:31.432Z,96392.28
2022-12-08T01:03:58.035Z,96367.97
2022-12-08T01:06:24.508Z,96350.31
2022-12-08T01:08:51.161Z,96326.03
2022-12-08T01:11:18.759Z,96279.28
2022-12-08T01:13:45.874Z,96261.41
2022-12-08T01:16:19.494Z,96233.25
2022-12-08T01:18:48.221Z,96244.31
2022-12-08T01:21:14.629Z,96249.84
2022-12-08T01:23:41.206Z,96263.19
2022-12-08T01:26:09.026Z,96276.53
2022-12-08T01:28:35.482Z,96272.13
2022-12-08T01:31:02.285Z,96351.38
2022-12-08T01:33:28.893Z,96434.44
2022-12-08T01:35:55.918Z,96479.56
2022-12-08T01:38:22.757Z,96506.63
2022-12-08T01:40:49.645Z,96525.81
2022-12-08T01:43:19.589Z,96531.72
2022-12-08T01:45:46.756Z,96537.97
2022-12-08T01:48:24.336Z,96526.16
2022-12-08T01:50:51.684Z,96501.09
2022-12-08T01:53:20.424Z,96394.66
2022-12-08T01:55:53.027Z,96337.28
2022-12-08T01:58:26.662Z,96325.69
2022-12-08T02:00:54.265Z,96376.59
2022-12-08T02:03:34.155Z,96447.91
2022-12-08T02:06:03.580Z,96485.56
2022-12-08T02:08:32.729Z,96491.81
2022-12-08T02:10:59.157Z,96503.72
2022-12-08T02:13:25.765Z,96513.56
2022-12-08T02:16:15.668Z,96496.13
2022-12-08T02:19:14.745Z,96498.19
2022-12-08T02:21:37.801Z,96510.84
2022-12-08T02:24:07.492Z,96496.25
2022-12-08T02:27:04.859Z,96473.44
2022-12-08T02:29:31.254Z,96472.66
2022-12-08T02:32:23.925Z,96410.44
2022-12-08T02:34:50.409Z,96401.25
2022-12-08T02:37:19.915Z,96446.84
2022-12-08T02:39:53.943Z,96473.44
2022-12-08T02:42:33.499Z,96464.47
2022-12-08T02:45:14.761Z,96482.63
2022-12-08T02:47:42.982Z,96509.59
2022-12-08T02:50:09.690Z,96494.09
2022-12-08T02:52:43.728Z,96497.59
2022-12-08T02:55:25.935Z,96501.00
2022-12-08T02:58:10.619Z,96485.13
2022-12-08T03:00:53.549Z,96469.03
2022-12-08T03:03:35.875Z,96452.47
2022-12-08T03:06:04.154Z,96471.66
2022-12-08T03:08:40.510Z,96472.09
2022-12-08T03:11:09.066Z,96496.34
2022-12-08T03:13:46.571Z,96490.47
2022-12-08T03:16:17.812Z,96513.34
2022-12-08T03:18:47.561Z,96480.94
2022-12-08T03:21:17.942Z,96450.78
2022-12-08T03:23:46.659Z,96389.38
2022-12-08T03:26:22.712Z,96330.22
2022-12-08T03:28:49.131Z,96337.00
2022-12-08T03:31:16.925Z,96371.88
2022-12-08T03:33:45.723Z,96400.84
2022-12-08T03:36:13.698Z,96434.69
2022-12-08T03:38:41.233Z,96445.81
2022-12-08T03:41:19.598Z,96464.84
2022-12-08T03:43:50.428Z,96474.16
2022-12-08T03:46:17.415Z,96477.09
2022-12-08T03:48:44.377Z,96488.63
2022-12-08T03:51:11.016Z,96460.66
2022-12-08T03:53:37.812Z,96431.22
2022-12-08T03:56:05.552Z,96404.69
2022-12-08T03:58:37.262Z,96431.34
2022-12-08T04:01:04.887Z,96448.06
2022-12-08T04:03:31.283Z,96443.28
2022-12-08T04:05:57.758Z,96423.94
2022-12-08T04:08:24.224Z,96398.16
2022-12-08T04:10:50.705Z,96400.09
2022-12-08T04:13:17.221Z,96427.72
2022-12-08T04:15:49.460Z,96433.31
2022-12-08T04:18:15.940Z,96450.78
2022-12-08T04:20:43.665Z,96462.13
2022-12-08T04:23:12.213Z,96474.25
2022-12-08T04:25:39.194Z,96456.66
2022-12-08T04:28:06.034Z,96430.50
2022-12-08T04:30:32.818Z,96385.75
2022-12-08T04:32:59.316Z,96386.84
2022-12-08T04:35:25.907Z,96410.06
2022-12-08T04:37:52.371Z,96371.19
2022-12-08T04:40:18.839Z,96348.56
2022-12-08T04:42:45.729Z,96350.47
2022-12-08T04:45:12.159Z,96338.53
2022-12-08T04:47:40.799Z,96362.81
2022-12-08T04:50:08.467Z,96383.53
2022-12-08T04:52:34.935Z,96406.81
2022-12-08T04:55:01.468Z,96417.25
2022-12-08T04:57:27.906Z,96452.84
2022-12-08T04:59:55.074Z,96477.06
2022-12-08T05:02:22.415Z,96487.94
2022-12-08T05:04:48.916Z,96476.66
2022-12-08T05:07:15.418Z,96464.06
2022-12-08T05:09:41.921Z,96450.97
2022-12-08T05:12:08.458Z,96471.50
2022-12-08T05:14:36.791Z,96472.00
2022-12-08T05:17:09.137Z,96489.72
2022-12-08T05:19:38.160Z,96475.94
2022-12-08T05:22:04.580Z,96442.94
2022-12-08T05:24:30.998Z,96464.59
2022-12-08T05:26:57.491Z,96476.25
2022-12-08T05:29:23.989Z,96467.75
2022-12-08T05:31:50.486Z,96465.22
2022-12-08T05:34:17.201Z,96472.03
2022-12-08T05:36:43.653Z,96455.75
2022-12-08T05:39:14.295Z,96433.75
2022-12-08T05:41:41.803Z,96482.84
2022-12-08T05:44:08.247Z,96495.13
2022-12-08T05:46:36.124Z,96453.63
2022-12-08T05:49:03.253Z,96436.44
2022-12-08T05:51:29.701Z,96456.56
2022-12-08T05:53:56.257Z,96508.13
2022-12-08T05:56:22.959Z,96485.91
2022-12-08T05:58:49.480Z,96495.28
2022-12-08T06:01:21.206Z,96526.66
2022-12-08T06:03:48.355Z,96491.16
2022-12-08T06:06:14.767Z,96544.75
2022-12-08T06:08:41.194Z,96572.28
2022-12-08T06:11:07.679Z,96517.25
2022-12-08T06:13:36.150Z,96445.06
2022-12-08T06:16:07.904Z,96373.59
2022-12-08T06:18:36.451Z,96384.81
2022-12-08T06:21:06.804Z,96335.78
2022-12-08T06:23:33.241Z,96285.91
2022-12-08T06:26:07.932Z,96344.28
2022-12-08T06:28:35.309Z,96437.00
2022-12-08T06:31:07.268Z,96489.25
2022-12-08T06:33:35.839Z,96506.53
2022-12-08T06:36:02.255Z,96522.31
2022-12-08T06:38:30.782Z,96509.06
2022-12-08T06:40:57.901Z,96487.47
2022-12-08T06:43:27.215Z,96484.66
2022-12-08T06:45:53.850Z,96523.78
2022-12-08T06:48:20.406Z,96535.66
2022-12-08T06:50:46.798Z,96546.22
2022-12-08T06:53:13.667Z,96514.94
2022-12-08T06:55:58.910Z,96480.22
2022-12-08T06:58:26.239Z,96511.66
2022-12-08T07:00:53.760Z,96537.69
2022-12-08T07:03:20.683Z,96537.94
2022-12-08T07:05:47.370Z,96533.63
2022-12-08T07:08:14.151Z,96539.31
2022-12-08T07:10:40.712Z,96523.09
2022-12-08T07:13:07.175Z,96467.63
2022-12-08T07:15:35.893Z,96442.50
2022-12-08T07:18:04.274Z,96468.31
2022-12-08T07:20:30.803Z,96501.31
2022-12-08T07:22:57.278Z,96518.09
2022-12-08T07:25:23.839Z,96546.41
2022-12-08T07:27:51.726Z,96548.59
2022-12-08T07:30:18.354Z,96551.06
2022-12-08T07:32:45.201Z,96560.34
2022-12-08T07:35:12.179Z,96556.94
2022-12-08T07:37:38.862Z,96550.28
2022-12-08T07:40:06.622Z,96552.28
2022-12-08T07:42:33.292Z,96544.53
2022-12-08T07:45:00.686Z,96537.03
2022-12-08T07:47:27.154Z,96512.22
2022-12-08T07:49:53.642Z,96463.78
2022-12-08T07:52:20.146Z,96418.03
2022-12-08T07:54:47.134Z,96415.81
2022-12-08T07:57:13.901Z,96428.78
2022-12-08T07:59:40.967Z,96428.50
2022-12-08T08:02:24.285Z,96420.91
2022-12-08T08:04:51.674Z,96417.44
2022-12-08T08:07:18.357Z,96412.38
2022-12-08T08:09:45.776Z,96404.47
2022-12-08T08:12:30.832Z,96399.72
2022-12-08T08:15:01.146Z,96399.38
2022-12-08T08:17:28.579Z,96398.44
2022-12-08T08:19:55.235Z,96410.94
2022-12-08T08:22:21.673Z,96419.81
2022-12-08T08:24:48.059Z,96416.22
2022-12-08T08:27:14.491Z,96418.44
2022-12-08T08:29:40.920Z,96426.28
2022-12-08T08:32:07.315Z,96430.41
2022-12-08T08:34:33.798Z,96418.09
2022-12-08T08:37:00.676Z,96409.38
2022-12-08T08:39:27.270Z,96403.81
2022-12-08T08:41:53.680Z,96395.03
2022-12-08T08:44:20.151Z,96401.91
2022-12-08T08:46:46.935Z,96390.19
2022-12-08T08:49:13.410Z,96394.78
2022-12-08T08:51:39.932Z,96378.19
2022-12-08T08:54:06.495Z,96370.03
2022-12-08T08:56:32.989Z,96369.56
2022-12-08T08:58:59.410Z,96369.09
2022-12-08T09:01:27.697Z,96368.06
2022-12-08T09:03:55.559Z,96363.66
2022-12-08T09:06:22.953Z,96363.47
2022-12-08T09:08:49.526Z,96341.13
2022-12-08T09:11:18.460Z,96334.38
2022-12-08T09:13:47.170Z,96337.78
2022-12-08T09:16:13.671Z,96339.66
2022-12-08T09:18:40.238Z,96335.44
2022-12-08T09:21:08.373Z,96319.78
2022-12-08T09:23:35.881Z,96300.47
2022-12-08T09:26:03.311Z,96276.38
2022-12-08T09:28:29.753Z,96262.97
2022-12-08T09:30:56.177Z,96270.03
2022-12-08T09:33:22.815Z,96266.63
2022-12-08T09:35:49.282Z,96252.72
2022-12-08T09:38:15.823Z,96251.41
2022-12-08T09:40:52.430Z,96251.16
2022-12-08T09:43:21.807Z,96234.88
2022-12-08T09:45:48.561Z,96226.41
2022-12-08T09:48:17.678Z,96223.78
2022-12-08T09:50:48.112Z,96227.72
2022-12-08T09:53:17.986Z,96224.78
2022-12-08T09:55:47.591Z,96224.78
2022-12-08T09:58:33.018Z,96233.22
2022-12-08T10:01:00.474Z,96234.28
2022-12-08T10:03:28.187Z,96240.63
2022-12-08T10:06:04.961Z,96253.00
2022-12-08T10:08:38.178Z,96244.59
2022-12-08T10:11:11.015Z,96240.63
2022-12-08T10:13:58.496Z,96235.34
2022-12-08T10:16:32.462Z,96250.59
2022-12-08T10:19:08.131Z,96259.25
2022-12-08T10:21:34.595Z,96258.47
2022-12-08T10:24:06.010Z,96254.78
2022-12-08T10:26:32.999Z,96257.69
2022-12-08T10:29:02.943Z,96259.00
2022-12-08T10:31:30.512Z,96257.41
2022-12-08T10:34:01.450Z,96258.47
2022-12-08T10:36:48.182Z,96247.41
2022-12-08T10:39:26.795Z,96248.47
2022-12-08T10:41:53.245Z,96234.22
2022-12-08T10:44:20.004Z,96254.50
2022-12-08T10:46:46.899Z,96281.63
2022-12-08T10:49:15.105Z,96270.09
2022-12-08T10:51:42.534Z,96259.56
2022-12-08T10:54:29.217Z,96211.47
2022-12-08T10:56:56.807Z,96211.22
2022-12-08T10:59:27.771Z,96198.88
2022-12-08T11:01:55.248Z,96167.06
2022-12-08T11:04:23.719Z,96159.13
2022-12-08T11:06:51.516Z,96142.28
2022-12-08T11:09:17.872Z,96140.25
2022-12-08T11:11:54.822Z,96113.09
2022-12-08T11:14:32.022Z,96103.84
2022-12-08T11:17:08.833Z,96077.78
2022-12-08T11:19:40.913Z,96062.25
2022-12-08T11:22:24.836Z,96053.78
2022-12-08T11:25:11.619Z,96060.19
2022-12-08T11:27:45.714Z,96054.38
2022-12-08T11:30:21.545Z,96053.66
2022-12-08T11:33:08.343Z,96053.41
2022-12-08T11:35:37.269Z,96045.00
2022-12-08T11:38:24.292Z,96029.75
2022-12-08T11:40:53.901Z,96017.38
2022-12-08T11:43:23.344Z,96008.13
2022-12-08T11:45:55.047Z,95983.88
2022-12-08T11:48:27.320Z,95969.03
2022-12-08T11:51:02.565Z,95980.72
2022-12-08T11:53:31.925Z,95971.44
2022-12-08T11:56:00.783Z,95963.78
2022-12-08T11:58:39.657Z,95961.34
2022-12-08T12:01:14.177Z,95945.78
2022-12-08T12:03:44.735Z,95954.03
2022-12-08T12:06:38.072Z,95961.72
2022-12-08T12:09:31.374Z,95954.47
2022-12-08T12:12:17.234Z,95935.06
2022-12-08T12:14:46.453Z,95921.16
2022-12-08T12:17:21.871Z,95908.81
2022-12-08T12:19:49.106Z,95908.75
2022-12-08T12:22:17.912Z,95904.66
2022-12-08T12:24:45.726Z,95903.97
2022-12-08T12:27:15.346Z,95902.47
2022-12-08T12:29:55.422Z,95896.66
2022-12-08T12:32:23.265Z,95885.91
2022-12-08T12:34:49.640Z,95898.09
2022-12-08T12:37:21.589Z,95899.06
2022-12-08T12:39:50.749Z,95903.19
2022-12-08T12:42:35.559Z,95890.72
2022-12-08T12:45:14.160Z,95900.16
2022-12-08T12:47:48.629Z,95907.91
2022-12-08T12:50:34.281Z,95931.69
2022-12-08T12:53:10.663Z,95939.81
2022-12-08T12:55:45.985Z,95948.66
2022-12-08T12:58:27.775Z,95972.25
2022-12-08T13:01:13.765Z,95992.09
2022-12-08T13:03:48.496Z,96009.09
2022-12-08T13:06:15.893Z,96004.81
2022-12-08T13:08:50.961Z,96004.69
2022-12-08T13:11:17.528Z,96007.66
2022-12-08T13:13:57.543Z,96018.78
2022-12-08T13:16:31.132Z,96025.06
2022-12-08T13:18:58.732Z,96032.44
2022-12-08T13:21:31.733Z,96039.88
2022-12-08T13:24:10.231Z,96044.44
2022-12-08T13:26:46.781Z,96070.97
2022-12-08T13:29:15.451Z,96086.72
2022-12-08T13:31:48.303Z,96103.41
2022-12-08T13:34:17.762Z,96114.03
2022-12-08T13:36:56.555Z,96107.88
2022-12-08T13:39:32.379Z,96110.47
2022-12-08T13:42:02.286Z,96124.00
2022-12-08T13:47:33.980Z,96163.16
2022-12-08T13:58:35.362Z,96174.75
2022-12-08T14:01:08.288Z,96178.16
2022-12-08T14:04:04.646Z,96175.19
2022-12-08T14:06:35.194Z,96190.78
2022-12-08T14:09:10.466Z,96198.72
2022-12-08T14:11:37.813Z,96206.69
2022-12-08T14:14:04.294Z,96211.69
2022-12-08T14:16:38.527Z,96205.03
2022-12-08T14:19:18.828Z,96198.69
2022-12-08T14:21:54.244Z,96208.63
2022-12-08T14:24:23.489Z,96218.19
2022-12-08T14:26:51.418Z,96221.81
2022-12-08T14:29:31.434Z,96225.75
2022-12-08T14:31:57.925Z,96273.63
2022-12-08T14:34:24.429Z,96285.50
2022-12-08T14:36:52.220Z,96240.72
2022-12-08T14:39:19.395Z,96220.97
2022-12-08T14:42:01.185Z,96168.72
2022-12-08T14:44:30.865Z,96148.13
2022-12-08T14:47:07.784Z,96133.84
2022-12-08T14:49:35.967Z,96116.41
2022-12-08T14:52:03.188Z,96102.56
2022-12-08T14:54:31.177Z,96104.63
2022-12-08T14:56:58.131Z,96150.88
2022-12-08T14:59:27.345Z,96202.91
2022-12-08T15:02:08.522Z,96210.84
2022-12-08T15:04:37.749Z,96164.47
2022-12-08T15:07:20.610Z,96124.06
2022-12-08T15:09:50.092Z,96123.38
2022-12-08T15:12:27.079Z,96201.75
2022-12-08T15:14:55.377Z,96234.84
2022-12-08T15:17:47.005Z,96195.91
2022-12-08T15:20:28.779Z,96145.84
2022-12-08T15:22:58.245Z,96173.28
2022-12-08T15:25:25.147Z,96223.84
2022-12-08T15:27:57.495Z,96256.38
2022-12-08T15:30:26.400Z,96245.34
2022-12-08T15:32:54.307Z,96206.50
2022-12-08T15:35:21.392Z,96186.75
2022-12-08T15:37:47.880Z,96199.63
2022-12-08T15:40:18.057Z,96164.56
2022-12-08T15:42:44.533Z,96116.38
2022-12-08T15:45:14.362Z,96128.53
2022-12-08T15:47:41.888Z,96173.13
2022-12-08T15:50:14.737Z,96189.16
2022-12-08T15:52:43.061Z,96196.75
2022-12-08T15:55:17.081Z,96236.16
2022-12-08T15:58:44.632Z,96261.59
2022-12-08T16:09:11.831Z,96322.34
2022-12-08T16:12:06.723Z,96292.03
2022-12-08T16:15:46.729Z,96258.00
2022-12-08T16:17:21.093Z,96240.63
2022-12-08T16:19:48.322Z,96274.19
2022-12-08T16:25:22.373Z,96319.81
2022-12-08T16:28:05.514Z,96315.13
2022-12-08T16:30:35.292Z,96291.56
2022-12-08T16:33:01.895Z,96305.97
2022-12-08T16:35:28.407Z,96338.16
2022-12-08T16:37:54.869Z,96307.84
2022-12-08T16:40:21.385Z,96279.00
2022-12-08T16:42:50.076Z,96291.31
2022-12-08T16:45:21.668Z,96313.09
2022-12-08T16:47:55.740Z,96303.16
2022-12-08T16:50:24.455Z,96261.66
2022-12-08T16:52:55.942Z,96263.00
2022-12-08T16:55:22.598Z,96290.03
2022-12-08T16:57:49.232Z,96299.47
2022-12-08T17:00:21.689Z,96284.78
2022-12-08T17:02:48.316Z,96269.00
2022-12-08T17:05:16.260Z,96262.16
2022-12-08T17:07:44.050Z,96245.78
2022-12-08T17:10:12.479Z,96259.25
2022-12-08T17:12:40.753Z,96222.13
2022-12-08T17:15:09.138Z,96211.06
2022-12-08T17:17:36.279Z,96298.47
2022-12-08T17:20:07.040Z,96381.78
2022-12-08T17:22:34.438Z,96382.00
2022-12-08T17:25:03.498Z,96296.06
2022-12-08T17:27:30.222Z,96240.63
2022-12-08T17:29:57.352Z,96198.00
2022-12-08T17:32:23.920Z,96170.34
2022-12-08T17:34:50.439Z,96129.97
2022-12-08T17:37:19.138Z,96107.28
2022-12-08T17:39:45.790Z,96104.16
2022-12-08T17:42:12.224Z,96110.03
2022-12-08T17:44:38.636Z,96107.88
2022-12-08T17:47:05.534Z,96091.75
2022-12-08T17:49:33.025Z,96084.06
2022-12-08T17:52:03.058Z,96091.97
2022-12-08T17:54:29.898Z,96118.19
2022-12-08T17:56:58.602Z,96165.88
2022-12-08T17:59:25.590Z,96171.19
2022-12-08T18:01:53.560Z,96192.28
2022-12-08T18:04:20.301Z,96217.00
2022-12-08T18:06:46.967Z,96243.25
2022-12-08T18:09:13.896Z,96255.88
2022-12-08T18:11:40.653Z,96258.50
2022-12-08T18:14:10.439Z,96230.16
2022-12-08T18:16:38.340Z,96217.50
2022-12-08T18:19:05.559Z,96263.22
2022-12-08T18:21:32.146Z,96275.53
2022-12-08T18:23:58.557Z,96277.34
2022-12-08T18:26:25.089Z,96266.09
2022-12-08T18:28:51.550Z,96251.16
2022-12-08T18:31:19.763Z,96208.06
2022-12-08T18:33:47.965Z,96206.50
2022-12-08T18:36:16.042Z,96177.53
2022-12-08T18:38:42.985Z,96167.50
2022-12-08T18:41:20.898Z,96126.16
2022-12-08T18:43:47.312Z,96101.34
2022-12-08T18:46:14.495Z,96095.50
2022-12-08T18:48:42.271Z,96100.56
2022-12-08T18:51:10.207Z,96108.00
2022-12-08T18:53:36.661Z,96112.19
2022-12-08T18:56:03.480Z,96106.88
2022-12-08T18:58:29.877Z,96115.72
2022-12-08T19:00:57.022Z,96110.75
2022-12-08T19:03:23.586Z,96124.69
2022-12-08T19:05:50.102Z,96127.31
2022-12-08T19:08:16.520Z,96132.84
2022-12-08T19:10:43.086Z,96126.13
2022-12-08T19:13:10.418Z,96141.97
2022-12-08T19:15:36.869Z,96157.31
2022-12-08T19:18:03.415Z,96182.63
2022-12-08T19:20:29.886Z,96196.34
2022-12-08T19:22:56.934Z,96214.53
2022-12-08T19:25:23.497Z,96235.31
2022-12-08T19:27:49.987Z,96247.94
2022-12-08T19:30:16.576Z,96263.97
2022-12-08T19:32:43.030Z,96271.59
2022-12-08T19:35:09.526Z,96275.78
2022-12-08T19:37:36.129Z,96281.31
2022-12-08T19:40:21.692Z,96283.09
2022-12-08T19:43:06.789Z,96289.41
2022-12-08T19:45:35.348Z,96311.03
2022-12-08T19:48:01.845Z,96321.53
2022-12-08T19:50:37.644Z,96312.56
2022-12-08T19:53:09.296Z,96307.31
2022-12-08T19:55:36.475Z,96325.72
2022-12-08T19:58:03.784Z,96334.16
2022-12-08T20:00:30.859Z,96319.38
2022-12-08T20:02:58.117Z,96323.84
2022-12-08T20:05:24.967Z,96330.16
2022-12-08T20:07:52.378Z,96327.25
2022-12-08T20:10:22.173Z,96335.16
2022-12-08T20:12:48.698Z,96330.38
2022-12-08T20:15:15.389Z,96326.69
2022-12-08T20:17:42.349Z,96344.38
2022-12-08T20:20:09.717Z,96370.47
2022-12-08T20:22:36.570Z,96386.25
2022-12-08T20:25:03.206Z,96400.19
2022-12-08T20:27:29.763Z,96414.66
2022-12-08T20:29:56.289Z,96412.56
2022-12-08T20:32:22.962Z,96415.97
2022-12-08T20:34:49.473Z,96422.56
2022-12-08T20:37:16.048Z,96430.69
2022-12-08T20:39:42.711Z,96441.97
2022-12-08T20:42:12.275Z,96448.28
2022-12-08T20:44:43.653Z,96444.09
2022-12-08T20:47:10.583Z,96435.72
2022-12-08T20:49:37.302Z,96434.63
2022-12-08T20:52:03.883Z,96434.13
2022-12-08T20:54:30.365Z,96436.75
2022-12-08T20:56:57.001Z,96447.50
2022-12-08T20:59:24.409Z,96451.19
2022-12-08T21:01:52.785Z,96440.19
2022-12-08T21:04:20.050Z,96443.06
2022-12-08T21:06:46.883Z,96439.38
2022-12-08T21:09:13.419Z,96436.22
2022-12-08T21:11:40.132Z,96454.63
2022-12-08T21:14:07.119Z,96473.00
2022-12-08T21:16:33.944Z,96472.47
2022-12-08T21:19:00.403Z,96480.63
2022-12-08T21:21:26.859Z,96481.91
2022-12-08T21:23:53.674Z,96474.88
2022-12-08T21:26:20.863Z,96453.63
2022-12-08T21:28:47.336Z,96442.31
2022-12-08T21:31:15.751Z,96423.34
2022-12-08T21:33:43.107Z,96423.91
2022-12-08T21:36:14.102Z,96424.16
2022-12-08T21:38:40.960Z,96419.94
2022-12-08T21:41:09.170Z,96420.97
2022-12-08T21:43:35.777Z,96408.88
2022-12-08T21:46:02.416Z,96395.19
2022-12-08T21:48:29.147Z,96389.34
2022-12-08T21:50:56.512Z,96386.19
2022-12-08T21:53:25.417Z,96386.19
2022-12-08T21:55:52.197Z,96378.28
2022-12-08T21:58:18.793Z,96367.72
2022-12-08T22:00:47.088Z,96356.09
2022-12-08T22:03:14.659Z,96351.06
2022-12-08T22:05:41.746Z,96332.25
2022-12-08T22:08:09.090Z,96328.56
2022-12-08T22:10:35.978Z,96330.72
2022-12-08T22:13:02.611Z,96318.56
2022-12-08T22:15:30.010Z,96313.78
2022-12-08T22:17:56.963Z,96328.13
2022-12-08T22:20:23.745Z,96363.03
2022-12-08T22:22:50.381Z,96387.56
2022-12-08T22:25:16.923Z,96412.84
2022-12-08T22:27:43.600Z,96392.06
2022-12-08T22:30:11.053Z,96385.72
2022-12-08T22:32:39.256Z,96347.31
2022-12-08T22:35:05.978Z,96323.63
2022-12-08T22:37:32.701Z,96302.25
2022-12-08T22:39:59.198Z,96308.84
2022-12-08T22:42:26.528Z,96355.75
2022-12-08T22:44:53.050Z,96355.75
2022-12-08T22:47:19.660Z,96345.75
2022-12-08T22:49:46.306Z,96333.66
2022-12-08T22:52:12.977Z,96321.03
2022-12-08T22:54:39.531Z,96315.22
2022-12-08T22:57:06.166Z,96303.09
2022-12-08T22:59:35.376Z,96342.59
2022-12-08T23:02:02.835Z,96339.97
2022-12-08T23:04:29.477Z,96335.50
2022-12-08T23:06:56.319Z,96306.81
2022-12-08T23:09:23.990Z,96323.16
2022-12-08T23:11:50.631Z,96320.50
2022-12-08T23:14:17.770Z,96310.53
2022-12-08T23:16:44.605Z,96283.09
2022-12-08T23:19:11.890Z,96272.84
2022-12-08T23:21:38.647Z,96271.00
2022-12-08T23:24:05.709Z,96257.50
2022-12-08T23:26:33.102Z,96232.97
2022-12-08T23:28:59.708Z,96205.00
2022-12-08T23:31:26.481Z,96187.03
2022-12-08T23:33:53.650Z,96173.56
2022-12-08T23:36:20.976Z,96186.78
2022-12-08T23:38:48.023Z,96221.97
2022-12-08T23:41:15.241Z,96243.09
2022-12-08T23:43:46.742Z,96263.69
2022-12-08T23:46:14.456Z,96241.50
2022-12-08T23:48:41.105Z,96243.69
2022-12-08T23:51:07.783Z,96230.72
2022-12-08T23:53:34.639Z,96205.63
2022-12-08T23:56:02.420Z,96176.81
2022-12-08T23:58:30.377Z,96190.88
